Latest Weather Observations for Braidwood

IDN60801

Issued at 7:32 pm EST Sunday 1 May 2016 (issued every 30 minutes, with the page automatically refreshed every 10 minutes)

About weather observations | Map of weather stations | Latest weather observations for NSW | Other Formats
Station Details ID: 069132 Name: BRAIDWOOD RACECOURSE AWS Lat: -35.43 Lon: 149.78 Height: 665.2 m
Data from the previous 72 hours. | See also: Recent months at Braidwood
Date/Time
EST
Temp
°C
App
Temp
°C
Dew
Point
Rel
Hum
%
Delta-T
°C
Wind Press
QNH
hPa
Press
MSL
hPa
Rain
since 9 am
mm
Dir
 
Spd
km/h
Gust
km/h
Spd
kts
Gust
kts
01/07:30pm 11.9 6.4 2.1 51 4.4 WNW 20 32 11 17 1013.8 1013.8 0.0
01/07:00pm 12.2 6.0 2.1 50 4.5 WNW 24 43 13 23 1013.1 1013.1 0.0
01/06:32pm 12.6 5.1 1.3 46 5.0 WNW 30 48 16 26 1012.3 1012.3 0.0
01/06:30pm 12.8 5.0 1.5 46 5.0 WNW 32 48 17 26 1012.3 1012.3 0.0
01/06:00pm 13.0 5.1 2.0 47 5.0 WNW 33 52 18 28 1011.8 1011.8 0.0
01/05:38pm 13.3 5.5 1.9 46 5.1 NW 32 54 17 29 1011.5 1011.5 0.0
01/05:30pm 13.5 6.1 1.8 45 5.3 NW 30 46 16 25 1011.4 1011.3 0.0
01/05:00pm 14.5 5.7 1.1 40 6.0 WNW 37 57 20 31 1010.5 1010.5 0.0
01/04:30pm 15.4 6.4 2.6 42 6.0 WNW 39 57 21 31 1010.1 1010.0 0.0
01/04:00pm 16.3 7.2 2.0 38 6.6 WNW 39 61 21 33 1009.6 1009.5 0.0
01/03:32pm 17.3 8.1 1.3 34 7.4 NW 39 59 21 32 1009.2 1009.2 0.0
01/03:30pm 17.2 7.5 0.8 33 7.5 NW 41 59 22 32 1009.2 1009.2 0.0
01/03:00pm 17.8 6.5 0.9 32 7.8 WNW 50 83 27 45 1008.8 1008.7 0.0
01/02:30pm 18.2 7.8 4.0 39 6.9 WNW 48 72 26 39 1008.6 1008.5 0.0
01/02:00pm 18.5 7.4 4.3 39 7.0 NW 52 83 28 45 1008.5 1008.4 0.0
01/01:30pm 19.0 8.9 5.5 41 6.8 NW 48 87 26 47 1008.5 1008.4 0.0
01/01:14pm 19.0 8.6 4.0 37 7.4 WNW 48 89 26 48 1008.3 1008.2 0.0
01/01:00pm 19.6 10.4 5.3 39 7.3 WNW 43 69 23 37 1008.5 1008.4 0.0
01/12:51pm 19.6 9.5 5.6 40 7.1 WNW 48 74 26 40 1008.7 1008.6 0.0
01/12:50pm 19.5 9.1 5.9 41 7.0 WNW 50 83 27 45 1008.8 1008.7 0.0
01/12:42pm 19.1 7.8 5.2 40 7.0 WNW 54 83 29 45 1008.8 1008.7 0.0
01/12:30pm 19.7 10.5 5.4 39 7.3 WNW 43 67 23 36 1009.0 1009.0 0.0
01/12:00pm 19.6 9.3 6.4 42 6.8 NW 50 76 27 41 1009.1 1009.1 0.0
01/11:30am 19.1 10.6 8.7 51 5.6 NW 43 67 23 36 1009.6 1009.5 0.0
01/11:00am 19.0 13.1 10.3 57 4.8 NW 32 56 17 30 1010.1 1010.0 0.0
01/10:47am 19.6 14.5 10.6 56 5.0 NW 28 48 15 26 1010.2 1010.2 0.0
01/10:30am 18.9 14.3 11.0 60 4.4 WNW 26 41 14 22 1010.1 1010.0 0.0
01/10:00am 18.4 12.9 11.9 66 3.7 NW 32 56 17 30 1010.5 1010.5 0.0
01/09:38am 18.2 13.6 12.2 68 3.4 NW 28 50 15 27 1010.5 1009.5 0.0
01/09:30am 18.5 15.1 13.8 74 2.8 NW 24 46 13 25 1010.5 1009.5 0.0
01/09:00am 17.6 14.8 14.3 81 2.0 NW 22 48 12 26 1011.1 1010.1 4.2
01/08:30am 16.6 13.8 14.2 86 1.4 NW 22 46 12 25 1011.0 1009.9 4.2
01/08:00am 15.6 13.3 14.1 91 0.9 NNW 19 37 10 20 1010.6 1009.6 4.2
01/07:30am 14.5 13.5 13.5 94 0.6 NNW 11 20 6 11 1011.2 1010.2 4.2
01/07:00am 14.1 13.0 13.0 93 0.6 N 11 19 6 10 1011.5 1010.5 3.8
01/06:30am 14.2 13.5 13.2 94 0.6 NNW 9 20 5 11 1012.3 1011.4 3.8
01/06:00am 14.7 14.2 13.9 95 0.5 NNW 9 20 5 11 1012.2 1011.2 3.4
01/05:30am 14.7 13.5 13.9 95 0.5 NNW 13 22 7 12 1013.1 1012.1 1.4
01/05:00am 13.8 13.5 13.2 96 0.3 NNW 7 15 4 8 1012.9 1011.9 0.6
01/04:30am 13.7 13.3 13.1 96 0.3 N 7 15 4 8 1013.4 1012.4 0.2
01/04:00am 13.9 13.6 13.4 97 0.3 NNW 7 13 4 7 1013.2 1012.2 0.0
01/03:30am 12.3 12.8 11.7 96 0.3 CALM 0 0 0 0 1013.0 1012.0 0.0
01/03:00am 11.5 11.7 10.7 95 0.4 CALM 0 2 0 1 1013.5 1012.5 0.0
01/02:30am 12.3 12.1 11.7 96 0.3 NNE 4 7 2 4 1013.7 1012.8 0.0
01/02:00am 12.3 12.5 11.7 96 0.3 NNE 2 6 1 3 1014.3 1013.3 0.0
01/01:30am 12.5 12.3 11.9 96 0.3 N 4 6 2 3 1014.9 1013.9 0.0
01/01:00am 12.2 12.7 11.6 96 0.3 CALM 0 6 0 3 1014.9 1013.9 0.0
01/12:30am 12.1 11.8 11.5 96 0.3 N 4 7 2 4 1015.5 1014.6 0.0
01/12:00am 11.3 10.3 10.4 94 0.5 NNW 6 9 3 5 1016.3 1015.4 0.0
 
Date/Time
EST
Temp
°C
App
Temp
°C
Dew
Point
Rel
Hum
%
Delta-T
°C
Wind Press
QNH
hPa
Press
MSL
hPa
Rain
since 9 am
mm
Dir
 
Spd
km/h
Gust
km/h
Spd
kts
Gust
kts
30/11:30pm 11.5 10.4 10.7 95 0.4 NW 7 13 4 7 1016.6 1015.7 0.0
30/11:00pm 11.2 10.9 10.0 92 0.6 NW 2 6 1 3 1017.1 1016.2 0.0
30/10:30pm 11.4 11.6 10.5 94 0.5 CALM 0 6 0 3 1017.5 1016.5 0.0
30/10:00pm 11.9 12.1 10.6 92 0.7 CALM 0 0 0 0 1017.7 1016.8 0.0
30/09:30pm 12.2 11.7 10.6 90 0.9 NNW 4 7 2 4 1017.7 1016.8 0.0
30/09:00pm 12.7 12.2 10.8 88 1.0 NW 4 7 2 4 1017.6 1016.7 0.0
30/08:30pm 13.4 12.8 11.6 89 1.0 NNW 6 9 3 5 1017.8 1016.9 0.0
30/08:00pm 13.0 12.2 11.1 88 1.0 NNW 6 9 3 5 1017.8 1016.9 0.0
30/07:30pm 13.4 12.5 10.8 84 1.4 NNW 6 7 3 4 1017.7 1016.8 0.0
30/07:00pm 13.8 12.9 10.6 81 1.7 NNW 6 9 3 5 1017.7 1016.8 0.0
30/06:30pm 14.5 13.9 10.3 76 2.3 NNW 4 7 2 4 1017.6 1016.7 0.0
30/06:00pm 15.4 15.0 9.7 69 3.1 NNW 2 6 1 3 1017.4 1016.4 0.0
30/05:30pm 17.9 16.4 10.5 62 4.1 NW 9 15 5 8 1017.1 1016.2 0.0
30/05:00pm 19.4 18.1 10.1 55 5.1 NW 7 17 4 9 1016.9 1016.0 0.0
30/04:30pm 20.1 17.7 9.9 52 5.6 NW 13 20 7 11 1017.0 1016.1 0.0
30/04:00pm 21.4 19.7 9.9 48 6.4 NW 9 17 5 9 1016.8 1015.9 0.0
30/03:30pm 21.3 19.0 10.5 50 6.1 WNW 13 20 7 11 1017.0 1016.1 0.0
30/03:00pm 21.5 18.7 10.0 48 6.4 WNW 15 24 8 13 1017.0 1016.1 0.0
30/02:30pm 21.3 18.7 9.2 46 6.7 NW 13 22 7 12 1017.0 1016.1 0.0
30/02:00pm 20.5 17.3 10.0 51 5.8 WNW 17 24 9 13 1017.1 1016.2 0.0
30/01:30pm 21.1 18.9 10.9 52 5.8 WNW 13 22 7 12 1017.1 1016.2 0.0
30/01:00pm 21.4 19.2 12.0 55 5.4 NW 15 22 8 12 1017.5 1016.5 0.0
30/12:30pm 19.4 17.8 11.7 61 4.4 NW 11 19 6 10 1018.0 1017.1 0.0
30/12:00pm 19.3 17.6 12.6 65 3.9 NW 13 19 7 10 1018.5 1017.6 0.0
30/11:30am 18.8 16.2 12.1 65 3.8 NW 17 26 9 14 1019.1 1018.2 0.0
30/11:00am 19.1 16.5 12.1 64 4.0 WNW 17 26 9 14 1019.2 1018.3 0.0
30/10:30am 18.8 17.3 13.2 70 3.3 NW 13 22 7 12 1019.5 1018.6 0.0
30/10:00am 17.1 16.1 12.4 74 2.7 NW 9 20 5 11 1019.8 1018.9 0.0
30/09:30am 17.1 17.0 14.0 82 1.8 NNW 7 15 4 8 1019.9 1019.0 0.0
30/09:00am 16.4 15.4 13.5 83 1.7 NW 11 17 6 9 1020.0 1019.1 0.4
30/08:30am 15.6 15.0 13.4 87 1.3 NW 9 19 5 10 1020.1 1019.3 0.4
30/08:00am 15.2 15.0 13.6 90 0.9 NNW 7 13 4 7 1019.9 1019.0 0.4
30/07:30am 14.7 14.3 13.1 90 0.9 NNW 7 13 4 7 1019.4 1018.5 0.4
30/07:00am 14.6 14.9 13.3 92 0.7 NNW 4 9 2 5 1019.4 1018.5 0.4
30/06:30am 14.6 14.5 13.3 92 0.7 NNW 6 13 3 7 1019.2 1018.3 0.4
30/06:00am 14.4 14.3 13.3 93 0.6 N 6 13 3 7 1018.7 1017.8 0.4
30/05:30am 14.4 14.0 13.1 92 0.7 NNW 7 13 4 7 1018.4 1017.5 0.4
30/05:00am 14.9 15.2 13.4 91 0.9 NNW 4 9 2 5 1018.7 1017.8 0.4
30/04:30am 15.0 15.3 13.5 91 0.9 N 4 6 2 3 1018.7 1017.8 0.4
30/04:00am 15.3 15.3 13.7 90 0.9 NNW 6 9 3 5 1018.6 1017.7 0.0
30/03:30am 15.3 15.3 13.5 89 1.0 N 6 13 3 7 1018.2 1017.3 0.0
30/03:00am 15.5 14.5 13.5 88 1.2 NW 11 20 6 11 1018.3 1017.4 0.0
30/02:30am 15.4 14.4 13.4 88 1.2 NW 11 20 6 11 1018.4 1017.5 0.0
30/02:00am 15.1 14.9 13.5 90 0.9 NNW 7 13 4 7 1018.6 1017.7 0.0
30/01:30am 15.0 14.9 13.4 90 0.9 NNW 6 9 3 5 1018.8 1018.0 0.0
30/01:00am 15.0 15.0 13.7 92 0.8 NNW 6 9 3 5 1018.8 1018.0 0.0
30/12:30am 14.9 14.9 13.6 92 0.8 N 6 13 3 7 1019.1 1018.2 0.0
30/12:00am 14.9 14.6 13.4 91 0.9 NNW 7 13 4 7 1019.2 1018.3 0.0
 
Date/Time
EST
Temp
°C
App
Temp
°C
Dew
Point
Rel
Hum
%
Delta-T
°C
Wind Press
QNH
hPa
Press
MSL
hPa
Rain
since 9 am
mm
Dir
 
Spd
km/h
Gust
km/h
Spd
kts
Gust
kts
29/11:30pm 14.9 14.6 13.3 90 0.9 NNW 7 13 4 7 1019.3 1018.4 0.0
29/11:00pm 14.9 14.5 13.1 89 1.0 NNW 7 15 4 8 1019.7 1018.8 0.0
29/10:30pm 15.1 14.4 13.3 89 1.0 NNW 9 17 5 9 1019.9 1019.0 0.0
29/10:00pm 15.5 15.2 13.3 87 1.3 N 7 13 4 7 1020.0 1019.1 0.0
29/09:30pm 15.4 15.0 13.1 86 1.3 NNW 7 13 4 7 1020.6 1019.7 0.0
29/09:00pm 15.9 15.4 12.6 81 1.9 NNW 7 13 4 7 1020.3 1019.5 0.0
29/08:30pm 16.6 15.8 12.8 78 2.2 NW 9 15 5 8 1020.4 1019.6 0.0
29/08:00pm 16.9 16.0 12.6 76 2.5 NW 9 17 5 9 1020.2 1019.4 0.0
29/07:30pm 16.4 15.9 12.0 75 2.5 NNW 6 9 3 5 1019.9 1019.0 0.0
29/07:00pm 17.5 16.0 12.0 70 3.1 NW 11 17 6 9 1020.0 1019.1 0.0
29/06:30pm 18.5 16.8 11.1 62 4.2 NW 11 17 6 9 1019.6 1018.7 0.0
29/06:00pm 19.4 17.7 9.9 54 5.2 NW 9 17 5 9 1019.3 1018.4 0.0
29/05:30pm 20.2 18.0 9.2 49 6.0 NW 11 17 6 9 1019.2 1018.3 0.0
29/05:00pm 21.1 17.6 8.7 45 6.7 NW 17 26 9 14 1019.0 1018.1 0.0
29/04:30pm 21.6 18.9 7.4 40 7.6 NW 11 20 6 11 1018.6 1017.7 0.0
29/04:00pm 22.6 20.3 7.6 38 8.1 NNW 9 15 5 8 1018.5 1017.6 0.0
29/03:30pm 22.6 19.7 6.4 35 8.5 NNW 11 24 6 13 1018.8 1018.0 0.0
29/03:00pm 22.7 19.7 6.0 34 8.7 NNW 11 20 6 11 1018.7 1017.8 0.0
29/02:30pm 23.6 19.9 6.4 33 9.1 NW 15 26 8 14 1018.7 1017.8 0.0
29/02:00pm 23.5 20.6 6.7 34 8.9 NNW 11 20 6 11 1019.1 1018.2 0.0
29/01:30pm 22.3 17.3 6.5 36 8.3 NW 22 32 12 17 1019.4 1018.5 0.0
29/01:00pm 22.3 19.2 7.3 38 8.0 NW 13 22 7 12 1019.7 1018.8 0.0
29/12:30pm 22.4 18.0 7.4 38 8.0 NW 20 33 11 18 1020.1 1019.3 0.0
29/12:00pm 21.8 20.3 8.3 42 7.3 NNW 6 13 3 7 1020.9 1020.0 0.0
29/11:30am 23.1 21.5 8.8 40 7.9 N 7 13 4 7 1021.3 1020.4 0.0
29/11:00am 21.5 20.3 9.4 46 6.7 N 6 13 3 7 1022.2 1021.3 0.0
29/10:30am 19.6 18.7 9.2 51 5.7 N 4 7 2 4 1022.5 1021.6 0.0
29/10:00am 18.0 17.4 9.1 56 4.8 N 2 7 1 4 1023.0 1022.2 0.0
29/09:30am 16.5 16.1 9.9 65 3.6 NNW 2 6 1 3 1023.1 1022.3 0.0
29/09:00am 15.3 15.3 9.9 70 2.9 CALM 0 0 0 0 1023.3 1022.5 0.0
29/08:30am 12.5 12.4 9.5 82 1.6 CALM 0 0 0 0 1023.9 1023.0 0.0
29/08:00am 9.8 9.5 8.6 92 0.6 CALM 0 0 0 0 1024.0 1023.1 0.0
29/07:30am 8.3 7.6 7.1 92 0.6 CALM 0 0 0 0 1023.9 1023.0 0.0
29/07:00am 7.3 6.4 5.9 91 0.7 CALM 0 0 0 0 1023.5 1022.7 0.0
29/06:30am 7.5 6.6 6.1 91 0.7 CALM 0 0 0 0 1023.1 1022.3 0.0
29/06:00am 7.3 6.4 5.9 91 0.7 CALM 0 0 0 0 1023.0 1022.2 0.0
29/05:30am 7.8 7.0 6.3 90 0.7 CALM 0 0 0 0 1023.0 1022.2 0.0
29/05:00am 7.6 6.7 6.2 91 0.7 CALM 0 0 0 0 1023.0 1022.2 0.0
29/04:30am 7.3 6.4 5.9 91 0.7 CALM 0 0 0 0 1022.9 1022.1 0.0
29/04:00am 7.0 6.0 5.5 90 0.7 CALM 0 0 0 0 1023.0 1022.2 0.0
29/03:30am 6.8 5.6 4.5 85 1.0 CALM 0 0 0 0 1023.0 1022.2 0.0
29/03:00am 8.3 7.4 5.9 85 1.1 CALM 0 0 0 0 1023.0 1022.2 0.0
29/02:30am 8.5 7.7 6.6 88 0.9 CALM 0 0 0 0 1023.3 1022.5 0.0
29/02:00am 8.6 7.8 6.6 87 1.0 CALM 0 0 0 0 1023.3 1022.5 0.0
29/01:30am 8.4 7.5 6.0 85 1.1 CALM 0 0 0 0 1023.8 1022.9 0.0
29/01:00am 8.6 7.6 5.5 81 1.4 CALM 0 0 0 0 1023.8 1022.9 0.0
29/12:30am 10.5 9.3 6.6 77 1.9 NW 2 2 1 1 1023.9 1023.0 0.0
29/12:00am 11.3 10.6 6.8 74 2.2 CALM 0 0 0 0 1023.9 1023.0 0.0
 
Date/Time
EST
Temp
°C
App
Temp
°C
Dew
Point
Rel
Hum
%
Delta-T
°C
Wind Press
QNH
hPa
Press
MSL
hPa
Rain
since 9 am
mm
Dir
 
Spd
km/h
Gust
km/h
Spd
kts
Gust
kts
28/11:30pm 11.5 10.9 7.4 76 2.1 CALM 0 4 0 2 1024.2 1023.4 0.0
28/11:00pm 10.4 9.6 6.7 78 1.8 CALM 0 0 0 0 1024.3 1023.5 0.0
28/10:30pm 9.8 8.8 5.8 76 1.9 CALM 0 0 0 0 1024.3 1023.5 0.0
28/10:00pm 11.2 10.4 6.3 72 2.4 CALM 0 0 0 0 1024.2 1023.4 0.0
28/09:30pm 11.6 10.8 6.7 72 2.4 CALM 0 0 0 0 1024.3 1023.5 0.0
28/09:00pm 12.5 11.7 6.3 66 3.0 CALM 0 0 0 0 1024.2 1023.4 0.0
28/08:30pm 13.1 12.4 6.9 66 3.1 CALM 0 0 0 0 1024.0 1023.1 0.0
28/08:00pm 13.4 11.6 7.0 65 3.2 NNW 6 6 3 3 1023.9 1023.0 0.0

Other Formats:

Comma delimited format used in spreadsheet applications
http://www.bom.gov.au/fwo/IDN60801/IDN60801.94927.axf

JavaScript Object Notation format (JSON) in row-major order
http://www.bom.gov.au/fwo/IDN60801/IDN60801.94927.json